Data for 10/03/2009

Time Sea-Level Adjusted Pressure Absolute Pressure Temperature Relative Humidity Dew Point   
(mb) (inHg) (mb) (inHg) (C) (F) (%) (C) (F)
00:05 1016 30 845 24.95 3.5 38.4 71 -1.2 29.9
00:10 1016 30 845 24.95 3.5 38.2 71 -1.4 29.5
00:15 1016 30 845 24.95 3.5 38.3 70 -1.5 29.2
00:20 1016 30 845 24.95 3.7 38.6 68 -1.6 29.2
00:25 1016 30 845 24.95 3.9 39.1 66 -1.8 28.8
00:30 1016 30 845 24.95 4 39.2 67 -1.5 29.3
00:35 1016 30 845 24.95 3.8 38.8 69 -1.4 29.6
00:40 1016 30 845 24.95 3.6 38.5 70 -1.3 29.6
00:45 1016 30 845 24.95 3.5 38.4 71 -1.2 29.9
00:50 1016 30 845 24.95 3.5 38.3 71 -1.3 29.7
00:55 1016 30 845 24.95 3.6 38.4 70 -1.4 29.5
01:00 1016 30 845 24.95 3.6 38.5 69 -1.5 29.3
01:05 1016 30 845 24.95 3.7 38.6 71 -1 30.2
01:10 1015 29.97 845 24.95 3.7 38.7 71 -1.2 29.9
01:15 1015 29.97 845 24.95 3.7 38.6 71 -1 30.1
01:20 1015 29.97 845 24.95 3.7 38.6 71 -1 30.2
01:25 1015 29.97 845 24.95 3.6 38.5 72 -1 30.2
01:30 1015 29.97 845 24.95 3.4 38.2 72 -1.1 30
01:35 1015 29.97 845 24.95 3.3 38 73 -1 30.2
01:40 1015 29.97 845 24.95 3.2 37.8 73 -1.2 29.9
01:45 1015 29.97 845 24.95 3.2 37.7 73 -1.1 29.9
01:50 1015 29.97 845 24.95 3.2 37.7 74 -1.1 30.1
01:55 1015 29.97 845 24.95 3.1 37.6 75 -0.9 30.3
02:00 1015 29.97 845 24.95 3.1 37.6 74 -1 30.1
02:05 1015 29.97 845 24.95 3.1 37.6 73 -1.2 29.8
02:10 1015 29.97 845 24.95 3.2 37.7 74 -1.1 30
02:15 1015 29.97 845 24.95 3.1 37.6 74 -1.1 30
02:20 1015 29.97 845 24.95 3.2 37.7 74 -1 30.3
02:25 1015 29.97 845 24.95 3 37.4 76 -0.8 30.5
02:30 1015 29.97 845 24.95 2.7 36.9 76 -1.1 30
02:35 1015 29.97 844 24.92 2.7 36.8 75 -1.4 29.5
02:40 1015 29.97 845 24.95 3.1 37.6 72 -1.5 29.4
02:45 1015 29.97 844 24.92 3.3 38 69 -1.8 28.8
02:50 1015 29.97 844 24.92 3.3 37.9 71 -1.4 29.5
02:55 1015 29.97 844 24.92 3.1 37.5 72 -1.6 29.2
03:00 1015 29.97 844 24.92 3 37.3 73 -1.4 29.5
03:05 1015 29.97 844 24.92 2.7 36.9 73 -1.6 29
03:10 1015 29.97 844 24.92 2.6 36.7 73 -1.7 29
03:15 1015 29.97 844 24.92 2.6 36.7 74 -1.6 29.2
03:20 1015 29.97 844 24.92 2.4 36.4 75 -1.6 29
03:25 1015 29.97 844 24.92 2.3 36.2 72 -2.2 28.1
03:30 1015 29.97 844 24.92 2.6 36.7 71 -2.1 28.3
03:35 1015 29.97 844 24.92 2.7 36.8 68 -2.5 27.4
03:40 1015 29.97 844 24.92 2.7 36.9 70 -2.3 27.9
03:45 1015 29.97 844 24.92 2.4 36.4 71 -2.2 28
03:50 1015 29.97 844 24.92 2.1 35.7 74 -2.2 28.1
03:55 1015 29.97 844 24.92 1.9 35.4 74 -2.3 27.9
04:00 1015 29.97 844 24.92 2 35.6 74 -2.2 28
04:05 1015 29.97 844 24.92 2.3 36.2 69 -2.8 27
04:10 1015 29.97 844 24.92 2.7 36.8 68 -2.7 27.1
04:15 1015 29.97 844 24.92 2.5 36.5 69 -2.6 27.3
04:20 1015 29.97 844 24.92 2.3 36.1 69 -2.7 27.1
04:25 1015 29.97 844 24.92 2.2 35.9 70 -2.8 27
04:30 1015 29.97 844 24.92 2 35.6 70 -2.8 26.9
04:35 1015 29.97 844 24.92 2 35.7 69 -3.1 26.3
04:40 1015 29.97 844 24.92 2.3 36.1 68 -3.1 26.4
04:45 1015 29.97 844 24.92 2.4 36.4 67 -3.1 26.4
04:50 1015 29.97 844 24.92 2.5 36.4 66 -3.2 26.3
04:55 1015 29.97 844 24.92 2.3 36.2 67 -3.2 26.3
05:00 1015 29.97 844 24.92 2.1 35.8 69 -3.1 26.4
05:05 1015 29.97 844 24.92 2 35.6 68 -3.3 26
05:10 1015 29.97 844 24.92 2.1 35.7 67 -3.5 25.6
05:15 1015 29.97 844 24.92 2.3 36.1 66 -3.5 25.7
05:20 1015 29.97 844 24.92 2.2 36 66 -3.5 25.6
05:25 1015 29.97 844 24.92 2.3 36.1 65 -3.5 25.7
05:30 1015 29.97 844 24.92 2.3 36.2 65 -3.6 25.6
05:35 1015 29.97 844 24.92 2.3 36.2 66 -3.3 26
05:40 1015 29.97 844 24.92 2.1 35.8 66 -3.5 25.7
05:45 1015 29.97 844 24.92 2 35.5 68 -3.3 26
05:50 1015 29.97 844 24.92 1.7 35 69 -3.5 25.7
05:55 1015 29.97 844 24.92 1.6 34.9 67 -3.9 25.1
06:00 1014 29.94 844 24.92 1.8 35.2 67 -3.7 25.4
06:05 1015 29.97 844 24.92 1.6 34.9 68 -3.7 25.3
06:10 1014 29.94 844 24.92 1.5 34.7 67 -4 24.8
06:15 1014 29.94 844 24.92 1.7 35.1 66 -4 24.8
06:20 1014 29.94 844 24.92 1.7 35.1 67 -3.8 25.2
06:25 1014 29.94 844 24.92 1.9 35.3 64 -4.2 24.5
06:30 1014 29.94 844 24.92 2.1 35.9 63 -4.2 24.4
06:35 1014 29.94 844 24.92 2.3 36.2 62 -4.2 24.5
06:40 1014 29.94 844 24.92 2.4 36.3 63 -3.9 24.9
06:45 1014 29.94 844 24.92 2 35.6 64 -4 24.8
06:50 1014 29.94 844 24.92 1.9 35.5 64 -4 24.7
06:55 1014 29.94 844 24.92 1.7 35 66 -4 24.8
07:00 1014 29.94 844 24.92 1.4 34.4 69 -3.7 25.3
07:05 1014 29.94 844 24.92 1 33.8 71 -3.7 25.3
07:10 1014 29.94 844 24.92 0.7 33.3 72 -3.8 25.2
07:15 1014 29.94 844 24.92 0.6 33 72 -3.9 25
07:20 1014 29.94 844 24.92 0.6 33 73 -3.7 25.4
07:25 1014 29.94 844 24.92 0.6 33.1 72 -3.8 25.1
07:30 1014 29.94 844 24.92 0.8 33.4 70 -4.1 24.7
07:35 1014 29.94 844 24.92 0.9 33.7 69 -4.1 24.7
07:40 1014 29.94 844 24.92 0.9 33.7 72 -3.6 25.5
07:45 1015 29.97 844 24.92 0.9 33.6 72 -3.6 25.6
07:50 1015 29.97 844 24.92 0.7 33.2 74 -3.4 26
07:55 1015 29.97 844 24.92 0.5 32.9 75 -3.4 25.9
08:00 1015 29.97 844 24.92 0.5 32.9 74 -3.5 25.6
08:05 1015 29.97 844 24.92 0.6 33.1 74 -3.5 25.6
08:10 1014 29.94 844 24.92 0.9 33.7 72 -3.5 25.7
08:15 1014 29.94 844 24.92 1.2 34.2 70 -3.6 25.6
08:20 1014 29.94 844 24.92 1.8 35.3 68 -3.5 25.7
08:25 1014 29.94 844 24.92 2.2 35.9 67 -3.3 26.1
08:30 1014 29.94 844 24.92 2.4 36.4 66 -3.4 25.9
08:35 1014 29.94 844 24.92 2.9 37.2 62 -3.8 25.2
08:40 1014 29.94 844 24.92 3.3 37.9 60 -3.7 25.4
08:45 1014 29.94 844 24.92 3.4 38.2 59 -3.7 25.3
08:50 1014 29.94 844 24.92 3.4 38.1 63 -3.1 26.5
08:55 1014 29.94 844 24.92 3.2 37.8 62 -3.3 26
09:00 1014 29.94 844 24.92 3.4 38.2 61 -3.4 25.9
09:05 1014 29.94 844 24.92 3.7 38.7 61 -3 26.5
09:10 1014 29.94 844 24.92 4 39.3 61 -2.9 26.8
09:15 1014 29.94 844 24.92 4.4 40 60 -2.7 27.2
09:20 1014 29.94 844 24.92 4.5 40 60 -2.6 27.3
09:25 1014 29.94 844 24.92 4.9 40.8 58 -2.6 27.3
09:30 1014 29.94 844 24.92 5.2 41.4 55 -3 26.6
09:35 1014 29.94 844 24.92 4.8 40.6 58 -2.9 26.8
09:40 1014 29.94 843 24.89 5 40.9 56 -3.2 26.3
09:45 1014 29.94 843 24.89 5.6 42 53 -3.2 26.2
09:50 1014 29.94 843 24.89 5.7 42.2 52 -3.4 25.8
09:55 1014 29.94 843 24.89 5.5 41.9 53 -3.2 26.2
10:00 1014 29.94 843 24.89 5.9 42.6 51 -3.5 25.7
10:05 1014 29.94 843 24.89 6.2 43.1 49 -3.7 25.3
10:10 1014 29.94 843 24.89 6.4 43.4 49 -3.6 25.5
10:15 1014 29.94 843 24.89 6.5 43.7 48 -3.7 25.4
10:20 1014 29.94 843 24.89 6.6 43.9 48 -3.5 25.7
10:25 1014 29.94 843 24.89 6.5 43.8 54 -2.1 28.2
10:30 1014 29.94 843 24.89 7 44.5 52 -2.1 28.2
10:35 1014 29.94 843 24.89 7.1 44.8 49 -2.8 26.9
10:40 1014 29.94 843 24.89 7.9 46.3 49 -2.2 28
10:45 1014 29.94 843 24.89 8.4 47 46 -2.5 27.6
10:50 1014 29.94 843 24.89 7.9 46.1 51 -1.6 29.2
10:55 1014 29.94 843 24.89 7.5 45.5 49 -2.5 27.5
11:00 1014 29.94 843 24.89 7.4 45.3 53 -1.6 29.1
11:05 1014 29.94 843 24.89 7.6 45.8 50 -2.2 28
11:10 1014 29.94 843 24.89 8.4 47 50 -1.5 29.3
11:15 1014 29.94 843 24.89 8 46.3 50 -1.9 28.6
11:20 1014 29.94 843 24.89 7.7 45.8 49 -2.3 27.9
11:25 1014 29.94 843 24.89 8.6 47.5 46 -2.2 28
11:30 1014 29.94 843 24.89 8.7 47.7 47 -1.8 28.7
11:35 1014 29.94 843 24.89 7.5 45.4 49 -2.6 27.4
11:40 1014 29.94 843 24.89 8.5 47.4 44 -3.1 26.5
11:45 1013 29.91 843 24.89 8.5 47.4 45 -2.7 27.2
11:50 1013 29.91 843 24.89 9.6 49.3 41 -3.1 26.4
11:55 1013 29.91 843 24.89 9.3 48.7 40 -3.7 25.3
12:00 1013 29.91 843 24.89 9.2 48.5 42 -3.1 26.4
12:05 1013 29.91 842 24.86 9.2 48.5 39 -4.1 24.6
12:10 1013 29.91 842 24.86 9.2 48.5 39 -4.2 24.4
12:15 1013 29.91 842 24.86 9.1 48.4 39 -4.1 24.6
12:20 1013 29.91 842 24.86 9.1 48.4 37 -4.9 23.1
12:25 1013 29.91 842 24.86 9.1 48.3 39 -4.1 24.7
12:30 1013 29.91 842 24.86 9 48.2 39 -4.1 24.6
12:35 1013 29.91 842 24.86 8.6 47.5 41 -4 24.9
12:40 1013 29.91 842 24.86 8.8 47.9 40 -3.9 25
12:45 1013 29.91 842 24.86 9.1 48.4 41 -3.5 25.7
12:50 1013 29.91 842 24.86 9 48.1 42 -3.2 26.2
12:55 1013 29.91 842 24.86 8.8 47.9 44 -2.9 26.9
13:00 1013 29.91 842 24.86 8.9 48 43 -2.9 26.8
13:05 1013 29.91 842 24.86 8.8 47.9 43 -2.9 26.7
13:10 1013 29.91 842 24.86 9.1 48.4 42 -3.1 26.5
13:15 1013 29.91 842 24.86 9.4 48.9 42 -2.8 27
13:20 1012 29.88 842 24.86 9.2 48.6 41 -3.4 25.8
13:25 1012 29.88 842 24.86 9.1 48.3 43 -3 26.7
13:30 1012 29.88 842 24.86 9.4 49 40 -3.3 26
13:35 1012 29.88 842 24.86 9.7 49.5 40 -3.3 26.1
13:40 1012 29.88 842 24.86 10 49.9 40 -2.9 26.7
13:45 1012 29.88 841 24.83 9.7 49.4 40 -3.1 26.4
13:50 1012 29.88 841 24.83 9.6 49.2 41 -2.9 26.7
13:55 1012 29.88 841 24.83 9.7 49.5 40 -3.3 26.1
14:00 1012 29.88 841 24.83 9.7 49.5 41 -2.8 26.9
14:05 1012 29.88 841 24.83 9.7 49.5 40 -3.1 26.3
14:10 1012 29.88 841 24.83 9.7 49.4 40 -3.3 26
14:15 1012 29.88 841 24.83 9.5 49.1 40 -3.3 26.1
14:20 1012 29.88 841 24.83 9.9 49.8 38 -3.7 25.3
14:25 1012 29.88 841 24.83 10 49.9 38 -3.5 25.7
14:30 1012 29.88 841 24.83 9.9 49.8 37 -4 24.8
14:35 1012 29.88 841 24.83 9.8 49.6 37 -4.2 24.5
14:40 1012 29.88 841 24.83 9.8 49.7 37 -4.1 24.6
14:45 1012 29.88 841 24.83 10.1 50.1 37 -4 24.8
14:50 1012 29.88 841 24.83 10.1 50.1 37 -4.1 24.6
14:55 1012 29.88 841 24.83 10.2 50.3 37 -4 24.9
15:00 1012 29.88 841 24.83 10.3 50.5 37 -3.7 25.3
15:05 1012 29.88 841 24.83 10.3 50.5 36 -3.9 24.9
15:10 1012 29.88 841 24.83 10 50 37 -4 24.8
15:15 1012 29.88 841 24.83 10 50 37 -4.1 24.6
15:20 1012 29.88 841 24.83 10.2 50.4 37 -3.8 25.1
15:25 1012 29.88 841 24.83 9.8 49.7 38 -3.9 25
15:30 1012 29.88 841 24.83 9.7 49.4 38 -4 24.7
15:35 1012 29.88 841 24.83 9.8 49.7 37 -4.1 24.7
15:40 1012 29.88 841 24.83 9.9 49.9 37 -3.9 24.9
15:45 1012 29.88 841 24.83 10 50 37 -4.1 24.7
15:50 1012 29.88 841 24.83 10.1 50.3 36 -4.1 24.6
15:55 1012 29.88 841 24.83 10.3 50.5 36 -3.9 24.9
16:00 1011 29.85 841 24.83 10.3 50.6 35 -4.3 24.3
16:05 1012 29.88 841 24.83 10.3 50.5 35 -4.3 24.2
16:10 1011 29.85 841 24.83 10.1 50.1 36 -4.3 24.3
16:15 1011 29.85 841 24.83 9.9 49.9 36 -4.4 24
16:20 1011 29.85 841 24.83 10 50 35 -4.6 23.6
16:25 1012 29.88 841 24.83 10 50 36 -4.4 24.2
16:30 1011 29.85 841 24.83 9.8 49.6 36 -4.5 23.9
16:35 1011 29.85 841 24.83 9.7 49.4 36 -4.7 23.5
16:40 1011 29.85 841 24.83 9.8 49.7 36 -4.6 23.6
16:45 1011 29.85 841 24.83 9.8 49.6 36 -4.7 23.6
16:50 1011 29.85 841 24.83 9.8 49.6 36 -4.6 23.7
16:55 1011 29.85 841 24.83 9.6 49.3 36 -4.5 23.8
17:00 1011 29.85 841 24.83 9.6 49.2 37 -4.6 23.8
17:05 1011 29.85 840 24.81 9.4 49 37 -4.6 23.7
17:10 1011 29.85 840 24.81 9.4 48.8 37 -4.5 23.9
17:15 1011 29.85 840 24.81 9.3 48.8 37 -4.6 23.7
17:20 1011 29.85 840 24.81 9.3 48.7 37 -4.8 23.4
17:25 1011 29.85 840 24.81 9.2 48.5 37 -4.9 23.2
17:30 1011 29.85 840 24.81 9.1 48.5 37 -4.7 23.5
17:35 1011 29.85 840 24.81 9.1 48.4 37 -4.9 23.2
17:40 1011 29.85 840 24.81 9 48.3 37 -4.9 23.1
17:45 1011 29.85 841 24.83 9 48.2 37 -4.7 23.5
17:50 1011 29.85 840 24.81 8.9 48.1 38 -4.8 23.4
17:55 1011 29.85 841 24.83 8.9 48 38 -4.6 23.7
18:00 1011 29.85 841 24.83 8.8 47.9 38 -4.8 23.4
18:05 1011 29.85 841 24.83 8.8 47.8 39 -4.5 23.8
18:10 1011 29.85 841 24.83 8.7 47.7 39 -4.6 23.8
18:15 1012 29.88 841 24.83 8.7 47.6 39 -4.6 23.7
18:20 1012 29.88 841 24.83 8.6 47.5 39 -4.5 23.9
18:25 1012 29.88 841 24.83 8.6 47.4 38 -4.8 23.4
18:30 1011 29.85 841 24.83 8.6 47.4 39 -4.6 23.7
18:35 1012 29.88 841 24.83 8.5 47.3 40 -4.4 24
18:40 1012 29.88 841 24.83 8.5 47.2 40 -4.3 24.2
18:45 1012 29.88 841 24.83 8.4 47.1 40 -4.3 24.3
18:50 1012 29.88 841 24.83 8.4 47 40 -4.4 24.1
18:55 1012 29.88 841 24.83 8.3 46.9 40 -4.4 24
19:00 1012 29.88 841 24.83 8.3 46.9 41 -4.2 24.4
19:05 1012 29.88 841 24.83 8.2 46.7 41 -4.3 24.2
19:10 1012 29.88 841 24.83 8.1 46.6 41 -4.4 24.1
19:15 1012 29.88 841 24.83 8 46.5 41 -4.5 24
19:20 1012 29.88 841 24.83 8 46.4 41 -4.3 24.2
19:25 1012 29.88 841 24.83 8 46.3 41 -4.4 24.1
19:30 1012 29.88 841 24.83 7.9 46.2 42 -4.4 24.2
19:35 1012 29.88 841 24.83 7.9 46.2 41 -4.4 24.1
19:40 1012 29.88 841 24.83 7.9 46.1 41 -4.5 24
19:45 1012 29.88 841 24.83 7.8 46 42 -4.5 23.9
19:50 1012 29.88 841 24.83 7.8 46 42 -4.4 24.1
19:55 1012 29.88 841 24.83 7.7 45.9 42 -4.4 24.1
20:00 1012 29.88 841 24.83 7.7 45.8 42 -4.4 24.1
20:05 1012 29.88 841 24.83 7.6 45.6 42 -4.5 23.9
20:10 1012 29.88 841 24.83 7.6 45.6 42 -4.4 24.1
20:15 1012 29.88 842 24.86 7.5 45.5 43 -4.2 24.5
20:20 1012 29.88 842 24.86 7.4 45.4 43 -4.3 24.2
20:25 1012 29.88 842 24.86 7.4 45.3 43 -4.3 24.2
20:30 1012 29.88 842 24.86 7.3 45.1 43 -4.3 24.2
20:35 1012 29.88 842 24.86 7.3 45.1 43 -4.6 23.8
20:40 1012 29.88 842 24.86 7.3 45.1 43 -4.4 24.1
20:45 1013 29.91 842 24.86 7.2 45 44 -4.3 24.3
20:50 1012 29.88 842 24.86 7.2 44.9 44 -4.3 24.2
20:55 1013 29.91 842 24.86 7.1 44.8 44 -4.3 24.2
21:00 1013 29.91 842 24.86 7 44.7 45 -4.1 24.5
21:05 1013 29.91 842 24.86 7 44.6 46 -3.9 25
21:10 1013 29.91 842 24.86 6.9 44.4 47 -3.6 25.5
21:15 1013 29.91 842 24.86 6.8 44.2 48 -3.4 25.9
21:20 1013 29.91 842 24.86 6.6 44 49 -3.2 26.2
21:25 1013 29.91 842 24.86 6.5 43.8 50 -3 26.5
21:30 1013 29.91 842 24.86 6.4 43.6 51 -2.9 26.8
21:35 1013 29.91 842 24.86 6.4 43.4 52 -2.9 26.9
21:40 1013 29.91 842 24.86 6.3 43.3 52 -2.8 26.9
21:45 1013 29.91 842 24.86 6.2 43.2 53 -2.7 27.1
21:50 1013 29.91 842 24.86 6.2 43.1 53 -2.6 27.2
21:55 1013 29.91 842 24.86 6.1 42.9 54 -2.6 27.3
22:00 1013 29.91 842 24.86 6 42.8 54 -2.6 27.3
22:05 1013 29.91 842 24.86 5.9 42.7 55 -2.5 27.6
22:10 1013 29.91 842 24.86 5.8 42.5 55 -2.4 27.7
22:15 1013 29.91 842 24.86 5.8 42.4 56 -2.3 27.8
22:20 1013 29.91 842 24.86 5.6 42.1 57 -2.2 28.1
22:25 1013 29.91 842 24.86 5.5 41.9 58 -2.2 28.1
22:30 1013 29.91 842 24.86 5.3 41.6 59 -2.1 28.2
22:35 1013 29.91 842 24.86 5.2 41.3 59 -2.2 28.1
22:40 1013 29.91 842 24.86 5.1 41.2 60 -2.1 28.2
22:45 1013 29.91 842 24.86 5.1 41.1 59 -2.3 27.9
22:50 1013 29.91 842 24.86 5 41 60 -2.2 28.1
22:55 1013 29.91 842 24.86 4.9 40.9 60 -2.3 27.9
23:00 1013 29.91 842 24.86 4.9 40.9 60 -2.3 27.9
23:05 1013 29.91 842 24.86 4.8 40.7 60 -2.2 28
23:10 1013 29.91 842 24.86 4.7 40.5 61 -2.2 28
23:15 1013 29.91 842 24.86 4.7 40.4 61 -2.2 28.1
23:20 1013 29.91 842 24.86 4.6 40.2 62 -2.2 28.1
23:25 1013 29.91 842 24.86 4.5 40.1 62 -2.3 27.9
23:30 1013 29.91 842 24.86 4.4 39.9 62 -2.2 28
23:35 1013 29.91 842 24.86 4.3 39.7 62 -2.2 28
23:40 1013 29.91 842 24.86 4.2 39.6 63 -2.1 28.2
23:45 1013 29.91 842 24.86 4.1 39.4 64 -2.1 28.2
23:50 1013 29.91 842 24.86 4.1 39.3 64 -2.1 28.3
23:55 1013 29.91 842 24.86 4 39.2 64 -2.1 28.2
24:00 1013 29.91 842 24.86 3.9 39.1 64 -2.2 28.1